sensor_id;sensor_type;location;lat;lon;timestamp;temperature;humidity
71801;HTU21D;59647;55.838;37.292;2022-10-18T00:01:35;9.70;107.35
71801;HTU21D;59647;55.838;37.292;2022-10-18T00:04:01;9.68;108.78
71801;HTU21D;59647;55.838;37.292;2022-10-18T00:06:27;9.69;107.58
71801;HTU21D;59647;55.838;37.292;2022-10-18T00:08:53;9.70;107.78
71801;HTU21D;59647;55.838;37.292;2022-10-18T00:11:19;9.68;107.82
71801;HTU21D;59647;55.838;37.292;2022-10-18T00:13:44;9.71;106.98
71801;HTU21D;59647;55.838;37.292;2022-10-18T00:16:13;9.74;107.05
71801;HTU21D;59647;55.838;37.292;2022-10-18T00:18:40;9.72;107.26
71801;HTU21D;59647;55.838;37.292;2022-10-18T00:21:09;9.71;107.50
71801;HTU21D;59647;55.838;37.292;2022-10-18T00:23:36;9.74;106.92
71801;HTU21D;59647;55.838;37.292;2022-10-18T00:26:08;9.76;106.92
71801;HTU21D;59647;55.838;37.292;2022-10-18T00:28:35;9.76;106.77
71801;HTU21D;59647;55.838;37.292;2022-10-18T00:31:11;9.78;106.43
71801;HTU21D;59647;55.838;37.292;2022-10-18T00:33:37;9.74;106.50
71801;HTU21D;59647;55.838;37.292;2022-10-18T00:36:04;9.74;106.88
71801;HTU21D;59647;55.838;37.292;2022-10-18T00:38:29;9.72;106.63
71801;HTU21D;59647;55.838;37.292;2022-10-18T00:40:55;9.68;107.28
71801;HTU21D;59647;55.838;37.292;2022-10-18T00:43:21;9.67;107.56
71801;HTU21D;59647;55.838;37.292;2022-10-18T00:45:47;9.67;106.92
71801;HTU21D;59647;55.838;37.292;2022-10-18T00:48:14;9.61;108.14
71801;HTU21D;59647;55.838;37.292;2022-10-18T00:50:41;9.61;106.97
71801;HTU21D;59647;55.838;37.292;2022-10-18T00:53:12;9.61;106.56
71801;HTU21D;59647;55.838;37.292;2022-10-18T00:55:39;9.61;106.74
71801;HTU21D;59647;55.838;37.292;2022-10-18T00:58:06;9.56;107.60
71801;HTU21D;59647;55.838;37.292;2022-10-18T01:00:33;9.57;106.46
71801;HTU21D;59647;55.838;37.292;2022-10-18T01:03:03;9.57;106.23
71801;HTU21D;59647;55.838;37.292;2022-10-18T01:05:29;9.53;106.56
71801;HTU21D;59647;55.838;37.292;2022-10-18T01:16:28;9.48;106.94
71801;HTU21D;59647;55.838;37.292;2022-10-18T01:22:30;9.49;106.53
71801;HTU21D;59647;55.838;37.292;2022-10-18T01:28:28;9.50;106.69
71801;HTU21D;59647;55.838;37.292;2022-10-18T01:30:59;9.50;106.29
71801;HTU21D;59647;55.838;37.292;2022-10-18T01:33:52;9.52;106.11
71801;HTU21D;59647;55.838;37.292;2022-10-18T01:36:36;9.53;106.06
71801;HTU21D;59647;55.838;37.292;2022-10-18T01:39:07;9.50;106.72
71801;HTU21D;59647;55.838;37.292;2022-10-18T01:41:34;9.49;106.24
71801;HTU21D;59647;55.838;37.292;2022-10-18T01:44:03;9.52;106.11
71801;HTU21D;59647;55.838;37.292;2022-10-18T01:46:32;9.55;105.98
71801;HTU21D;59647;55.838;37.292;2022-10-18T01:48:58;9.56;106.18
71801;HTU21D;59647;55.838;37.292;2022-10-18T01:51:26;9.53;106.37
71801;HTU21D;59647;55.838;37.292;2022-10-18T01:53:52;9.54;106.30
71801;HTU21D;59647;55.838;37.292;2022-10-18T01:56:32;9.53;106.53
71801;HTU21D;59647;55.838;37.292;2022-10-18T02:04:45;9.54;105.92
71801;HTU21D;59647;55.838;37.292;2022-10-18T02:07:26;9.52;106.43
71801;HTU21D;59647;55.838;37.292;2022-10-18T02:12:28;9.48;106.67
71801;HTU21D;59647;55.838;37.292;2022-10-18T02:14:57;9.50;106.01
71801;HTU21D;59647;55.838;37.292;2022-10-18T02:17:25;9.48;106.29
71801;HTU21D;59647;55.838;37.292;2022-10-18T02:19:54;9.50;106.09
71801;HTU21D;59647;55.838;37.292;2022-10-18T02:22:24;9.53;105.78
71801;HTU21D;59647;55.838;37.292;2022-10-18T02:24:52;9.53;105.66
71801;HTU21D;59647;55.838;37.292;2022-10-18T02:27:19;9.57;105.43
71801;HTU21D;59647;55.838;37.292;2022-10-18T02:29:46;9.55;105.63
71801;HTU21D;59647;55.838;37.292;2022-10-18T02:32:20;9.51;106.05
71801;HTU21D;59647;55.838;37.292;2022-10-18T02:34:58;9.50;106.27
71801;HTU21D;59647;55.838;37.292;2022-10-18T02:37:31;9.48;106.36
71801;HTU21D;59647;55.838;37.292;2022-10-18T02:39:58;9.46;106.17
71801;HTU21D;59647;55.838;37.292;2022-10-18T02:42:24;9.47;105.88
71801;HTU21D;59647;55.838;37.292;2022-10-18T02:44:49;9.46;106.38
71801;HTU21D;59647;55.838;37.292;2022-10-18T02:47:15;9.46;105.74
71801;HTU21D;59647;55.838;37.292;2022-10-18T02:49:41;9.42;106.14
71801;HTU21D;59647;55.838;37.292;2022-10-18T02:52:07;9.41;105.85
71801;HTU21D;59647;55.838;37.292;2022-10-18T02:54:33;9.44;105.68
71801;HTU21D;59647;55.838;37.292;2022-10-18T02:56:59;9.44;105.66
71801;HTU21D;59647;55.838;37.292;2022-10-18T02:59:24;9.45;105.32
71801;HTU21D;59647;55.838;37.292;2022-10-18T03:01:50;9.44;105.41
71801;HTU21D;59647;55.838;37.292;2022-10-18T03:04:16;9.44;105.55
71801;HTU21D;59647;55.838;37.292;2022-10-18T03:06:41;9.42;105.76
71801;HTU21D;59647;55.838;37.292;2022-10-18T03:09:08;9.40;105.51
71801;HTU21D;59647;55.838;37.292;2022-10-18T03:11:34;9.40;105.41
71801;HTU21D;59647;55.838;37.292;2022-10-18T03:13:59;9.38;106.19
71801;HTU21D;59647;55.838;37.292;2022-10-18T03:16:26;9.35;105.99
71801;HTU21D;59647;55.838;37.292;2022-10-18T03:18:51;9.34;106.30
71801;HTU21D;59647;55.838;37.292;2022-10-18T03:21:17;9.32;106.22
71801;HTU21D;59647;55.838;37.292;2022-10-18T03:23:43;9.27;106.01
71801;HTU21D;59647;55.838;37.292;2022-10-18T03:26:09;9.26;105.68
71801;HTU21D;59647;55.838;37.292;2022-10-18T03:28:34;9.22;106.34
71801;HTU21D;59647;55.838;37.292;2022-10-18T03:31:02;9.21;105.81
71801;HTU21D;59647;55.838;37.292;2022-10-18T03:33:28;9.19;105.89
71801;HTU21D;59647;55.838;37.292;2022-10-18T03:35:54;9.17;106.53
71801;HTU21D;59647;55.838;37.292;2022-10-18T03:38:20;9.14;106.13
71801;HTU21D;59647;55.838;37.292;2022-10-18T03:40:46;9.11;105.96
71801;HTU21D;59647;55.838;37.292;2022-10-18T03:43:12;9.10;105.72
71801;HTU21D;59647;55.838;37.292;2022-10-18T03:45:38;9.08;105.96
71801;HTU21D;59647;55.838;37.292;2022-10-18T03:48:04;9.06;105.95
71801;HTU21D;59647;55.838;37.292;2022-10-18T03:50:30;9.04;105.85
71801;HTU21D;59647;55.838;37.292;2022-10-18T03:52:56;9.06;106.05
71801;HTU21D;59647;55.838;37.292;2022-10-18T03:55:22;9.06;105.95
71801;HTU21D;59647;55.838;37.292;2022-10-18T03:57:47;9.05;105.64
71801;HTU21D;59647;55.838;37.292;2022-10-18T04:00:13;9.08;105.56
71801;HTU21D;59647;55.838;37.292;2022-10-18T04:02:39;9.11;105.46
71801;HTU21D;59647;55.838;37.292;2022-10-18T04:05:06;9.12;105.98
71801;HTU21D;59647;55.838;37.292;2022-10-18T04:07:35;9.11;106.80
71801;HTU21D;59647;55.838;37.292;2022-10-18T04:10:01;9.12;106.14
71801;HTU21D;59647;55.838;37.292;2022-10-18T04:12:28;9.14;105.99
71801;HTU21D;59647;55.838;37.292;2022-10-18T04:14:54;9.10;107.07
71801;HTU21D;59647;55.838;37.292;2022-10-18T04:17:20;9.08;107.32
71801;HTU21D;59647;55.838;37.292;2022-10-18T04:19:46;9.06;107.23
71801;HTU21D;59647;55.838;37.292;2022-10-18T04:22:11;9.05;107.76
71801;HTU21D;59647;55.838;37.292;2022-10-18T04:24:37;9.08;106.63
71801;HTU21D;59647;55.838;37.292;2022-10-18T04:27:04;9.11;106.63
71801;HTU21D;59647;55.838;37.292;2022-10-18T04:29:30;9.12;106.26
71801;HTU21D;59647;55.838;37.292;2022-10-18T04:31:56;9.18;105.76
71801;HTU21D;59647;55.838;37.292;2022-10-18T04:34:22;9.18;105.79
71801;HTU21D;59647;55.838;37.292;2022-10-18T04:36:47;9.19;105.85
71801;HTU21D;59647;55.838;37.292;2022-10-18T04:39:13;9.19;105.76
71801;HTU21D;59647;55.838;37.292;2022-10-18T04:41:39;9.21;106.12
71801;HTU21D;59647;55.838;37.292;2022-10-18T04:44:05;9.24;105.78
71801;HTU21D;59647;55.838;37.292;2022-10-18T04:46:30;9.23;105.69
71801;HTU21D;59647;55.838;37.292;2022-10-18T04:48:56;9.23;105.89
71801;HTU21D;59647;55.838;37.292;2022-10-18T04:51:22;9.26;105.70
71801;HTU21D;59647;55.838;37.292;2022-10-18T04:53:47;9.29;105.89
71801;HTU21D;59647;55.838;37.292;2022-10-18T04:56:13;9.31;106.25
71801;HTU21D;59647;55.838;37.292;2022-10-18T04:58:39;9.32;106.21
71801;HTU21D;59647;55.838;37.292;2022-10-18T05:01:06;9.33;106.88
71801;HTU21D;59647;55.838;37.292;2022-10-18T05:03:32;9.35;106.08
71801;HTU21D;59647;55.838;37.292;2022-10-18T05:05:57;9.40;105.89
71801;HTU21D;59647;55.838;37.292;2022-10-18T05:08:23;9.42;106.25
71801;HTU21D;59647;55.838;37.292;2022-10-18T05:10:49;9.42;106.16
71801;HTU21D;59647;55.838;37.292;2022-10-18T05:13:15;9.42;106.71
71801;HTU21D;59647;55.838;37.292;2022-10-18T05:15:40;9.41;106.98
71801;HTU21D;59647;55.838;37.292;2022-10-18T05:18:06;9.45;106.43
71801;HTU21D;59647;55.838;37.292;2022-10-18T05:20:32;9.44;107.37
71801;HTU21D;59647;55.838;37.292;2022-10-18T05:22:58;9.42;107.03
71801;HTU21D;59647;55.838;37.292;2022-10-18T05:25:24;9.42;107.43
71801;HTU21D;59647;55.838;37.292;2022-10-18T05:27:49;9.45;106.59
71801;HTU21D;59647;55.838;37.292;2022-10-18T05:30:15;9.53;106.56
71801;HTU21D;59647;55.838;37.292;2022-10-18T05:32:41;9.49;107.11
71801;HTU21D;59647;55.838;37.292;2022-10-18T05:35:07;9.48;107.30
71801;HTU21D;59647;55.838;37.292;2022-10-18T05:37:33;9.45;107.41
71801;HTU21D;59647;55.838;37.292;2022-10-18T05:39:58;9.45;107.31
71801;HTU21D;59647;55.838;37.292;2022-10-18T05:42:24;9.44;108.10
71801;HTU21D;59647;55.838;37.292;2022-10-18T05:44:50;9.44;108.48
71801;HTU21D;59647;55.838;37.292;2022-10-18T05:47:15;9.47;107.61
71801;HTU21D;59647;55.838;37.292;2022-10-18T05:49:41;9.50;106.99
71801;HTU21D;59647;55.838;37.292;2022-10-18T05:52:07;9.52;107.14
71801;HTU21D;59647;55.838;37.292;2022-10-18T05:54:33;9.55;107.63
71801;HTU21D;59647;55.838;37.292;2022-10-18T05:56:58;9.55;108.04
71801;HTU21D;59647;55.838;37.292;2022-10-18T05:59:24;9.55;107.25
71801;HTU21D;59647;55.838;37.292;2022-10-18T06:01:50;9.57;106.99
71801;HTU21D;59647;55.838;37.292;2022-10-18T06:04:16;9.66;106.52
71801;HTU21D;59647;55.838;37.292;2022-10-18T06:06:42;9.71;106.35
71801;HTU21D;59647;55.838;37.292;2022-10-18T06:09:08;9.75;106.00
71801;HTU21D;59647;55.838;37.292;2022-10-18T06:11:35;9.82;105.70
71801;HTU21D;59647;55.838;37.292;2022-10-18T06:14:01;9.86;105.74
71801;HTU21D;59647;55.838;37.292;2022-10-18T06:16:27;9.85;105.70
71801;HTU21D;59647;55.838;37.292;2022-10-18T06:18:54;9.89;105.72
71801;HTU21D;59647;55.838;37.292;2022-10-18T06:21:22;9.90;105.47
71801;HTU21D;59647;55.838;37.292;2022-10-18T06:23:49;9.92;105.57
71801;HTU21D;59647;55.838;37.292;2022-10-18T06:26:15;9.92;105.53
71801;HTU21D;59647;55.838;37.292;2022-10-18T06:28:41;9.95;105.36
71801;HTU21D;59647;55.838;37.292;2022-10-18T06:31:08;9.98;105.18
71801;HTU21D;59647;55.838;37.292;2022-10-18T06:33:35;10.00;105.04
71801;HTU21D;59647;55.838;37.292;2022-10-18T06:36:04;9.99;105.58
71801;HTU21D;59647;55.838;37.292;2022-10-18T06:38:30;9.99;104.98
71801;HTU21D;59647;55.838;37.292;2022-10-18T06:40:56;9.99;105.37
71801;HTU21D;59647;55.838;37.292;2022-10-18T06:43:23;10.04;105.40
71801;HTU21D;59647;55.838;37.292;2022-10-18T06:45:49;10.06;105.30
71801;HTU21D;59647;55.838;37.292;2022-10-18T06:48:16;10.06;105.40
71801;HTU21D;59647;55.838;37.292;2022-10-18T06:50:42;10.08;105.39
71801;HTU21D;59647;55.838;37.292;2022-10-18T06:53:14;10.12;105.49
71801;HTU21D;59647;55.838;37.292;2022-10-18T06:55:40;10.14;105.33
71801;HTU21D;59647;55.838;37.292;2022-10-18T06:58:06;10.13;105.46
71801;HTU21D;59647;55.838;37.292;2022-10-18T07:00:33;10.13;106.39
71801;HTU21D;59647;55.838;37.292;2022-10-18T07:02:58;10.12;105.71
71801;HTU21D;59647;55.838;37.292;2022-10-18T07:05:24;10.15;105.85
71801;HTU21D;59647;55.838;37.292;2022-10-18T07:07:50;10.18;106.11
71801;HTU21D;59647;55.838;37.292;2022-10-18T07:10:16;10.20;105.82
71801;HTU21D;59647;55.838;37.292;2022-10-18T07:12:41;10.19;106.29
71801;HTU21D;59647;55.838;37.292;2022-10-18T07:15:07;10.20;106.45
71801;HTU21D;59647;55.838;37.292;2022-10-18T07:17:33;10.23;106.12
71801;HTU21D;59647;55.838;37.292;2022-10-18T07:19:59;10.20;106.98
71801;HTU21D;59647;55.838;37.292;2022-10-18T07:22:25;10.19;106.46
71801;HTU21D;59647;55.838;37.292;2022-10-18T07:24:51;10.21;107.07
71801;HTU21D;59647;55.838;37.292;2022-10-18T07:27:16;10.23;107.01
71801;HTU21D;59647;55.838;37.292;2022-10-18T07:29:42;10.25;106.82
71801;HTU21D;59647;55.838;37.292;2022-10-18T07:32:08;10.29;106.70
71801;HTU21D;59647;55.838;37.292;2022-10-18T07:34:34;10.33;106.70
71801;HTU21D;59647;55.838;37.292;2022-10-18T07:37:00;10.35;106.83
71801;HTU21D;59647;55.838;37.292;2022-10-18T07:39:26;10.39;106.68
71801;HTU21D;59647;55.838;37.292;2022-10-18T07:41:52;10.41;106.43
71801;HTU21D;59647;55.838;37.292;2022-10-18T07:44:18;10.43;106.38
71801;HTU21D;59647;55.838;37.292;2022-10-18T07:46:44;10.46;106.46
71801;HTU21D;59647;55.838;37.292;2022-10-18T07:49:10;10.48;106.50
71801;HTU21D;59647;55.838;37.292;2022-10-18T07:51:35;10.45;106.85
71801;HTU21D;59647;55.838;37.292;2022-10-18T07:54:01;10.48;106.55
71801;HTU21D;59647;55.838;37.292;2022-10-18T07:56:27;10.48;107.00
71801;HTU21D;59647;55.838;37.292;2022-10-18T07:58:54;10.46;107.13
71801;HTU21D;59647;55.838;37.292;2022-10-18T08:01:22;10.40;108.36
71801;HTU21D;59647;55.838;37.292;2022-10-18T08:03:48;10.42;107.20
71801;HTU21D;59647;55.838;37.292;2022-10-18T08:06:16;10.45;106.95
71801;HTU21D;59647;55.838;37.292;2022-10-18T08:08:43;10.48;106.95
71801;HTU21D;59647;55.838;37.292;2022-10-18T08:11:22;10.49;107.04
71801;HTU21D;59647;55.838;37.292;2022-10-18T08:13:48;10.50;107.03
71801;HTU21D;59647;55.838;37.292;2022-10-18T08:16:17;10.49;107.37
71801;HTU21D;59647;55.838;37.292;2022-10-18T08:18:44;10.49;107.51
71801;HTU21D;59647;55.838;37.292;2022-10-18T08:21:10;10.43;107.88
71801;HTU21D;59647;55.838;37.292;2022-10-18T08:23:37;10.44;108.75
71801;HTU21D;59647;55.838;37.292;2022-10-18T08:26:05;10.40;108.72
71801;HTU21D;59647;55.838;37.292;2022-10-18T08:28:32;10.34;110.11
71801;HTU21D;59647;55.838;37.292;2022-10-18T08:31:15;10.23;109.89
71801;HTU21D;59647;55.838;37.292;2022-10-18T08:33:45;10.27;109.11
71801;HTU21D;59647;55.838;37.292;2022-10-18T08:36:13;10.33;109.05
71801;HTU21D;59647;55.838;37.292;2022-10-18T08:38:40;10.35;108.72
71801;HTU21D;59647;55.838;37.292;2022-10-18T08:46:34;10.35;109.09
71801;HTU21D;59647;55.838;37.292;2022-10-18T08:49:02;10.24;111.20
71801;HTU21D;59647;55.838;37.292;2022-10-18T08:51:42;10.26;109.94
71801;HTU21D;59647;55.838;37.292;2022-10-18T08:54:14;10.20;112.68
71801;HTU21D;59647;55.838;37.292;2022-10-18T08:56:46;10.19;111.14
71801;HTU21D;59647;55.838;37.292;2022-10-18T08:59:15;10.24;110.42
71801;HTU21D;59647;55.838;37.292;2022-10-18T09:17:53;10.59;109.62
71801;HTU21D;59647;55.838;37.292;2022-10-18T09:20:25;10.65;109.15
71801;HTU21D;59647;55.838;37.292;2022-10-18T09:25:35;10.74;110.06
71801;HTU21D;59647;55.838;37.292;2022-10-18T09:28:14;10.81;109.15
71801;HTU21D;59647;55.838;37.292;2022-10-18T09:35:58;10.95;108.83
71801;HTU21D;59647;55.838;37.292;2022-10-18T09:38:30;10.96;108.88
71801;HTU21D;59647;55.838;37.292;2022-10-18T09:41:04;10.99;109.01
71801;HTU21D;59647;55.838;37.292;2022-10-18T09:43:44;11.01;109.09
71801;HTU21D;59647;55.838;37.292;2022-10-18T09:46:11;11.05;108.85
71801;HTU21D;59647;55.838;37.292;2022-10-18T09:48:46;11.12;108.70
71801;HTU21D;59647;55.838;37.292;2022-10-18T09:51:18;11.14;108.88
71801;HTU21D;59647;55.838;37.292;2022-10-18T09:56:47;11.19;108.97
71801;HTU21D;59647;55.838;37.292;2022-10-18T09:59:39;11.23;108.88
71801;HTU21D;59647;55.838;37.292;2022-10-18T10:02:11;11.23;108.65
71801;HTU21D;59647;55.838;37.292;2022-10-18T10:04:37;11.26;108.45
71801;HTU21D;59647;55.838;37.292;2022-10-18T10:07:08;11.27;108.49
71801;HTU21D;59647;55.838;37.292;2022-10-18T10:09:47;11.33;108.27
71801;HTU21D;59647;55.838;37.292;2022-10-18T10:12:42;11.36;109.62
71801;HTU21D;59647;55.838;37.292;2022-10-18T10:15:23;11.34;108.96
71801;HTU21D;59647;55.838;37.292;2022-10-18T10:18:01;11.37;108.81
71801;HTU21D;59647;55.838;37.292;2022-10-18T10:20:46;11.41;108.78
71801;HTU21D;59647;55.838;37.292;2022-10-18T10:28:23;11.52;108.45
71801;HTU21D;59647;55.838;37.292;2022-10-18T10:30:50;11.54;108.64
71801;HTU21D;59647;55.838;37.292;2022-10-18T10:33:36;11.56;109.20
71801;HTU21D;59647;55.838;37.292;2022-10-18T10:36:18;11.56;109.05
71801;HTU21D;59647;55.838;37.292;2022-10-18T10:38:45;11.59;108.63
71801;HTU21D;59647;55.838;37.292;2022-10-18T10:41:26;11.66;108.50
71801;HTU21D;59647;55.838;37.292;2022-10-18T10:43:52;11.69;109.01
71801;HTU21D;59647;55.838;37.292;2022-10-18T10:46:18;11.70;108.94
71801;HTU21D;59647;55.838;37.292;2022-10-18T10:51:28;11.74;112.58
71801;HTU21D;59647;55.838;37.292;2022-10-18T10:56:35;11.77;112.19
71801;HTU21D;59647;55.838;37.292;2022-10-18T10:59:19;11.86;113.09
71801;HTU21D;59647;55.838;37.292;2022-10-18T11:01:46;11.92;111.61
71801;HTU21D;59647;55.838;37.292;2022-10-18T11:04:23;11.97;116.68
71801;HTU21D;59647;55.838;37.292;2022-10-18T11:06:59;12.05;114.61
71801;HTU21D;59647;55.838;37.292;2022-10-18T11:09:50;12.14;114.54
71801;HTU21D;59647;55.838;37.292;2022-10-18T11:12:37;12.23;114.66
71801;HTU21D;59647;55.838;37.292;2022-10-18T11:22:41;12.50;115.26
71801;HTU21D;59647;55.838;37.292;2022-10-18T11:25:12;12.57;113.42
71801;HTU21D;59647;55.838;37.292;2022-10-18T11:30:48;12.67;118.16
71801;HTU21D;59647;55.838;37.292;2022-10-18T11:33:20;12.72;117.60
71801;HTU21D;59647;55.838;37.292;2022-10-18T11:36:06;12.78;118.62
71801;HTU21D;59647;55.838;37.292;2022-10-18T11:38:51;12.79;118.99
71801;HTU21D;59647;55.838;37.292;2022-10-18T11:43:56;12.94;118.40
71801;HTU21D;59647;55.838;37.292;2022-10-18T11:49:26;13.06;118.99
71801;HTU21D;59647;55.838;37.292;2022-10-18T11:52:23;13.16;118.53
71801;HTU21D;59647;55.838;37.292;2022-10-18T12:03:37;13.43;116.44
71801;HTU21D;59647;55.838;37.292;2022-10-18T12:06:15;13.45;117.23
71801;HTU21D;59647;55.838;37.292;2022-10-18T12:08:46;13.47;118.28
71801;HTU21D;59647;55.838;37.292;2022-10-18T12:11:23;13.50;118.54
71801;HTU21D;59647;55.838;37.292;2022-10-18T12:13:56;13.52;117.90
71801;HTU21D;59647;55.838;37.292;2022-10-18T12:16:27;13.55;118.34
71801;HTU21D;59647;55.838;37.292;2022-10-18T12:18:57;13.52;118.99
71801;HTU21D;59647;55.838;37.292;2022-10-18T12:21:25;13.58;118.99
71801;HTU21D;59647;55.838;37.292;2022-10-18T12:23:55;13.60;118.99
71801;HTU21D;59647;55.838;37.292;2022-10-18T12:26:23;13.66;118.63
71801;HTU21D;59647;55.838;37.292;2022-10-18T12:31:57;13.68;118.99
71801;HTU21D;59647;55.838;37.292;2022-10-18T12:34:38;13.70;118.99
71801;HTU21D;59647;55.838;37.292;2022-10-18T12:39:45;13.78;118.99
71801;HTU21D;59647;55.838;37.292;2022-10-18T12:42:24;13.81;118.99
71801;HTU21D;59647;55.838;37.292;2022-10-18T12:45:04;13.85;118.99
71801;HTU21D;59647;55.838;37.292;2022-10-18T12:47:31;13.86;118.99
71801;HTU21D;59647;55.838;37.292;2022-10-18T12:50:04;13.88;118.99
71801;HTU21D;59647;55.838;37.292;2022-10-18T12:52:31;13.95;118.17
71801;HTU21D;59647;55.838;37.292;2022-10-18T13:08:37;14.15;116.13
71801;HTU21D;59647;55.838;37.292;2022-10-18T13:19:00;14.12;117.00
71801;HTU21D;59647;55.838;37.292;2022-10-18T13:24:56;14.23;115.90
71801;HTU21D;59647;55.838;37.292;2022-10-18T13:27:42;14.21;115.49
71801;HTU21D;59647;55.838;37.292;2022-10-18T13:44:22;14.23;114.03
71801;HTU21D;59647;55.838;37.292;2022-10-18T14:08:11;14.12;112.91
71801;HTU21D;59647;55.838;37.292;2022-10-18T14:10:49;14.14;112.48
71801;HTU21D;59647;55.838;37.292;2022-10-18T14:13:23;14.08;112.25
71801;HTU21D;59647;55.838;37.292;2022-10-18T14:15:57;14.11;112.16
71801;HTU21D;59647;55.838;37.292;2022-10-18T14:18:28;14.10;112.45
71801;HTU21D;59647;55.838;37.292;2022-10-18T14:21:00;14.05;112.34
71801;HTU21D;59647;55.838;37.292;2022-10-18T14:23:35;14.00;112.49
71801;HTU21D;59647;55.838;37.292;2022-10-18T14:26:19;13.99;112.18
71801;HTU21D;59647;55.838;37.292;2022-10-18T14:39:47;13.98;112.23
71801;HTU21D;59647;55.838;37.292;2022-10-18T14:42:20;13.96;112.13
71801;HTU21D;59647;55.838;37.292;2022-10-18T14:44:47;13.93;111.97
71801;HTU21D;59647;55.838;37.292;2022-10-18T14:47:26;13.91;111.87
71801;HTU21D;59647;55.838;37.292;2022-10-18T14:49:53;13.85;111.74
71801;HTU21D;59647;55.838;37.292;2022-10-18T14:52:25;13.81;111.32
71801;HTU21D;59647;55.838;37.292;2022-10-18T14:54:54;13.75;111.39
71801;HTU21D;59647;55.838;37.292;2022-10-18T14:57:29;13.73;111.84
71801;HTU21D;59647;55.838;37.292;2022-10-18T15:00:00;13.76;111.63
71801;HTU21D;59647;55.838;37.292;2022-10-18T15:02:31;13.76;111.55
71801;HTU21D;59647;55.838;37.292;2022-10-18T15:05:16;13.77;111.23
71801;HTU21D;59647;55.838;37.292;2022-10-18T15:07:44;13.73;111.27
71801;HTU21D;59647;55.838;37.292;2022-10-18T15:10:19;13.65;112.01
71801;HTU21D;59647;55.838;37.292;2022-10-18T15:12:46;13.62;111.90
71801;HTU21D;59647;55.838;37.292;2022-10-18T15:15:20;13.63;111.59
71801;HTU21D;59647;55.838;37.292;2022-10-18T15:17:48;13.61;111.53
71801;HTU21D;59647;55.838;37.292;2022-10-18T15:22:43;13.56;111.86
71801;HTU21D;59647;55.838;37.292;2022-10-18T15:25:14;13.56;111.20
71801;HTU21D;59647;55.838;37.292;2022-10-18T15:27:49;13.50;111.34
71801;HTU21D;59647;55.838;37.292;2022-10-18T15:30:40;13.50;111.51
71801;HTU21D;59647;55.838;37.292;2022-10-18T15:33:15;13.50;111.51
71801;HTU21D;59647;55.838;37.292;2022-10-18T15:35:44;13.52;111.33
71801;HTU21D;59647;55.838;37.292;2022-10-18T15:38:16;13.54;111.29
71801;HTU21D;59647;55.838;37.292;2022-10-18T15:40:47;13.50;111.00
71801;HTU21D;59647;55.838;37.292;2022-10-18T15:45:49;13.46;110.53
71801;HTU21D;59647;55.838;37.292;2022-10-18T15:48:19;13.43;110.51
71801;HTU21D;59647;55.838;37.292;2022-10-18T15:50:54;13.39;110.30
71801;HTU21D;59647;55.838;37.292;2022-10-18T15:55:51;13.34;110.35
71801;HTU21D;59647;55.838;37.292;2022-10-18T16:00:46;13.26;110.07
71801;HTU21D;59647;55.838;37.292;2022-10-18T16:03:14;13.25;109.91
71801;HTU21D;59647;55.838;37.292;2022-10-18T16:05:41;13.24;109.78
71801;HTU21D;59647;55.838;37.292;2022-10-18T16:08:20;13.19;109.83
71801;HTU21D;59647;55.838;37.292;2022-10-18T16:10:46;13.17;109.89
71801;HTU21D;59647;55.838;37.292;2022-10-18T16:13:12;13.12;109.88
71801;HTU21D;59647;55.838;37.292;2022-10-18T16:15:38;13.04;109.52
71801;HTU21D;59647;55.838;37.292;2022-10-18T16:18:04;13.02;109.68
71801;HTU21D;59647;55.838;37.292;2022-10-18T16:20:29;12.97;109.84
71801;HTU21D;59647;55.838;37.292;2022-10-18T16:22:55;12.95;109.50
71801;HTU21D;59647;55.838;37.292;2022-10-18T16:25:22;12.89;109.65
71801;HTU21D;59647;55.838;37.292;2022-10-18T16:27:48;12.85;109.10
71801;HTU21D;59647;55.838;37.292;2022-10-18T16:30:17;12.79;108.91
71801;HTU21D;59647;55.838;37.292;2022-10-18T16:32:45;12.73;108.83
71801;HTU21D;59647;55.838;37.292;2022-10-18T16:35:13;12.70;108.71
71801;HTU21D;59647;55.838;37.292;2022-10-18T16:37:39;12.63;108.40
71801;HTU21D;59647;55.838;37.292;2022-10-18T16:40:25;12.60;107.85
71801;HTU21D;59647;55.838;37.292;2022-10-18T16:42:51;12.61;108.40
71801;HTU21D;59647;55.838;37.292;2022-10-18T16:45:17;12.46;107.86
71801;HTU21D;59647;55.838;37.292;2022-10-18T16:47:43;12.51;108.09
71801;HTU21D;59647;55.838;37.292;2022-10-18T16:50:18;12.57;107.89
71801;HTU21D;59647;55.838;37.292;2022-10-18T16:52:44;12.58;107.63
71801;HTU21D;59647;55.838;37.292;2022-10-18T16:55:11;12.55;107.09
71801;HTU21D;59647;55.838;37.292;2022-10-18T16:57:42;12.53;106.43
71801;HTU21D;59647;55.838;37.292;2022-10-18T17:00:19;12.51;106.43
71801;HTU21D;59647;55.838;37.292;2022-10-18T17:02:46;12.46;106.69
71801;HTU21D;59647;55.838;37.292;2022-10-18T17:05:13;12.45;106.68
71801;HTU21D;59647;55.838;37.292;2022-10-18T17:07:39;12.44;106.69
71801;HTU21D;59647;55.838;37.292;2022-10-18T17:10:05;12.36;106.01
71801;HTU21D;59647;55.838;37.292;2022-10-18T17:12:31;12.34;105.47
71801;HTU21D;59647;55.838;37.292;2022-10-18T17:14:57;12.33;105.97
71801;HTU21D;59647;55.838;37.292;2022-10-18T17:17:23;12.30;105.70
71801;HTU21D;59647;55.838;37.292;2022-10-18T17:19:49;12.28;106.03
71801;HTU21D;59647;55.838;37.292;2022-10-18T17:22:15;12.29;105.57
71801;HTU21D;59647;55.838;37.292;2022-10-18T17:24:40;12.29;106.07
71801;HTU21D;59647;55.838;37.292;2022-10-18T17:27:07;12.27;105.95
71801;HTU21D;59647;55.838;37.292;2022-10-18T17:29:33;12.28;105.98
71801;HTU21D;59647;55.838;37.292;2022-10-18T17:44:25;12.25;105.10
71801;HTU21D;59647;55.838;37.292;2022-10-18T17:46:52;12.22;105.20
71801;HTU21D;59647;55.838;37.292;2022-10-18T17:49:18;12.22;105.95
71801;HTU21D;59647;55.838;37.292;2022-10-18T17:51:46;12.21;105.98
71801;HTU21D;59647;55.838;37.292;2022-10-18T17:54:12;12.25;106.14
71801;HTU21D;59647;55.838;37.292;2022-10-18T17:56:41;12.25;105.82
71801;HTU21D;59647;55.838;37.292;2022-10-18T17:59:06;12.25;105.86
